Time,TemperatureF,DewpointF,PressureIn,WindDirection,WindDirectionDegrees,WindSpeedMPH,WindSpeedGustMPH,Humidity,HourlyPrecipIn,Conditions,Clouds,dailyrainin,SolarRadiationWatts/m^2,SoftwareType,DateUTC
2013-02-22 00:01:00,67.6,64.0,30.02,SSW,205,0.0,-999.0,87,-99.99,,,0.00,0,weatherlink.com 1.10,2013-02-22 05:01:00,
2013-02-22 00:31:00,66.5,63.0,30.01,SSW,205,0.0,-999.0,88,-99.99,,,0.00,0,weatherlink.com 1.10,2013-02-22 05:31:00,
2013-02-22 00:46:00,66.3,63.0,30.01,SSW,205,0.0,-999.0,89,-99.99,,,0.00,0,weatherlink.com 1.10,2013-02-22 05:46:00,
2013-02-22 01:01:00,66.1,63.0,30.00,SSW,205,0.0,-999.0,90,-99.99,,,0.00,0,weatherlink.com 1.10,2013-02-22 06:01:00,
2013-02-22 01:16:00,66.2,63.0,30.00,SSW,205,0.0,-999.0,90,-99.99,,,0.00,0,weatherlink.com 1.10,2013-02-22 06:16:00,
2013-02-22 01:31:00,66.1,63.0,30.00,SSW,205,1.0,-999.0,90,-99.99,,,0.00,0,weatherlink.com 1.10,2013-02-22 06:31:00,
2013-02-22 01:46:00,66.0,63.0,30.00,SSW,205,0.0,-999.0,90,-99.99,,,0.00,0,weatherlink.com 1.10,2013-02-22 06:46:00,
2013-02-22 02:01:00,65.6,63.0,30.01,SSW,205,0.0,-999.0,91,-99.99,,,0.00,0,weatherlink.com 1.10,2013-02-22 07:01:00,
2013-02-22 02:16:00,65.2,63.0,30.00,SSW,205,0.0,-999.0,91,-99.99,,,0.00,0,weatherlink.com 1.10,2013-02-22 07:16:00,
2013-02-22 02:31:00,65.5,63.0,30.00,SSW,205,0.0,-999.0,92,-99.99,,,0.00,0,weatherlink.com 1.10,2013-02-22 07:31:00,
2013-02-22 02:46:00,65.7,63.0,30.00,ESE,115,1.0,-999.0,92,-99.99,,,0.00,0,weatherlink.com 1.10,2013-02-22 07:46:00,
2013-02-22 03:01:00,65.4,63.0,29.99,ESE,115,0.0,-999.0,92,-99.99,,,0.00,0,weatherlink.com 1.10,2013-02-22 08:01:00,
2013-02-22 03:16:00,65.4,63.0,30.00,ESE,115,0.0,-999.0,93,-99.99,,,0.00,0,weatherlink.com 1.10,2013-02-22 08:16:00,
2013-02-22 03:31:00,65.0,63.0,30.00,ESE,115,0.0,-999.0,92,-99.99,,,0.00,0,weatherlink.com 1.10,2013-02-22 08:31:00,
2013-02-22 03:46:00,64.6,63.0,30.00,ESE,115,0.0,-999.0,93,-99.99,,,0.00,0,weatherlink.com 1.10,2013-02-22 08:46:00,
2013-02-22 04:02:00,64.2,62.0,30.00,ESE,115,0.0,-999.0,93,-99.99,,,0.00,0,weatherlink.com 1.10,2013-02-22 09:02:00,
2013-02-22 04:17:00,64.1,62.0,30.01,ESE,115,0.0,-999.0,94,-99.99,,,0.00,0,weatherlink.com 1.10,2013-02-22 09:17:00,
2013-02-22 04:31:00,63.9,62.0,30.01,ESE,115,0.0,-999.0,94,-99.99,,,0.00,0,weatherlink.com 1.10,2013-02-22 09:31:00,
2013-02-22 04:46:00,63.6,62.0,30.01,ESE,115,0.0,-999.0,94,-99.99,,,0.00,0,weatherlink.com 1.10,2013-02-22 09:46:00,
2013-02-22 05:01:00,63.6,62.0,30.01,ESE,115,0.0,-999.0,94,-99.99,,,0.00,0,weatherlink.com 1.10,2013-02-22 10:01:00,
2013-02-22 05:16:00,63.7,62.0,30.01,ESE,115,1.0,-999.0,94,-99.99,,,0.00,0,weatherlink.com 1.10,2013-02-22 10:16:00,
2013-02-22 05:31:00,63.6,62.0,30.01,ESE,115,0.0,-999.0,94,-99.99,,,0.00,0,weatherlink.com 1.10,2013-02-22 10:31:00,
2013-02-22 05:46:00,63.5,62.0,30.02,ESE,115,0.0,-999.0,94,-99.99,,,0.00,0,weatherlink.com 1.10,2013-02-22 10:46:00,
2013-02-22 06:02:00,63.4,62.0,30.02,ESE,115,0.0,-999.0,94,-99.99,,,0.00,0,weatherlink.com 1.10,2013-02-22 11:02:00,
2013-02-22 06:17:00,63.5,62.0,30.02,ESE,115,0.0,-999.0,95,-99.99,,,0.00,0,weatherlink.com 1.10,2013-02-22 11:17:00,
2013-02-22 06:32:00,63.6,62.0,30.03,ESE,115,1.0,-999.0,95,-99.99,,,0.00,0,weatherlink.com 1.10,2013-02-22 11:32:00,
2013-02-22 06:46:00,63.9,63.0,30.03,ESE,115,1.0,-999.0,95,-99.99,,,0.00,0,weatherlink.com 1.10,2013-02-22 11:46:00,
2013-02-22 07:01:00,64.3,63.0,30.03,East,88,0.0,-999.0,95,-99.99,,,0.00,5,weatherlink.com 1.10,2013-02-22 12:01:00,
2013-02-22 07:17:00,64.3,63.0,30.04,SSE,159,1.0,-999.0,95,-99.99,,,0.00,23,weatherlink.com 1.10,2013-02-22 12:17:00,
2013-02-22 07:32:00,64.9,64.0,30.04,SSE,163,0.0,-999.0,95,-99.99,,,0.00,54,weatherlink.com 1.10,2013-02-22 12:32:00,
2013-02-22 07:47:00,65.5,64.0,30.05,ENE,62,3.0,-999.0,95,-99.99,,,0.00,69,weatherlink.com 1.10,2013-02-22 12:47:00,
2013-02-22 08:02:00,66.0,64.0,30.05,ESE,114,2.0,-999.0,94,-99.99,,,0.00,90,weatherlink.com 1.10,2013-02-22 13:02:00,
2013-02-22 08:17:00,66.8,65.0,30.05,South,182,1.0,-999.0,93,-99.99,,,0.00,113,weatherlink.com 1.10,2013-02-22 13:17:00,
2013-02-22 08:32:00,67.7,65.0,30.05,ESE,107,4.0,-999.0,92,-99.99,,,0.00,271,weatherlink.com 1.10,2013-02-22 13:32:00,
2013-02-22 08:47:00,68.7,66.0,30.05,East,92,4.0,-999.0,91,-99.99,,,0.00,299,weatherlink.com 1.10,2013-02-22 13:47:00,
2013-02-22 09:02:00,69.7,66.0,30.05,SSE,167,2.0,-999.0,89,-99.99,,,0.00,306,weatherlink.com 1.10,2013-02-22 14:02:00,
2013-02-22 09:17:00,70.9,67.0,30.05,ESE,117,2.0,-999.0,88,-99.99,,,0.00,417,weatherlink.com 1.10,2013-02-22 14:17:00,
2013-02-22 09:32:00,72.0,68.0,30.06,SE,133,6.0,-999.0,87,-99.99,,,0.00,489,weatherlink.com 1.10,2013-02-22 14:32:00,
2013-02-22 09:47:00,73.3,69.0,30.05,SE,146,2.0,-999.0,85,-99.99,,,0.00,541,weatherlink.com 1.10,2013-02-22 14:47:00,
2013-02-22 10:02:00,74.8,69.0,30.06,ESE,102,2.0,-999.0,82,-99.99,,,0.00,531,weatherlink.com 1.10,2013-02-22 15:02:00,
2013-02-22 10:17:00,76.1,70.0,30.06,ESE,104,1.0,-999.0,80,-99.99,,,0.00,613,weatherlink.com 1.10,2013-02-22 15:17:00,
2013-02-22 10:33:00,77.4,70.0,30.05,ESE,118,4.0,-999.0,77,-99.99,,,0.00,670,weatherlink.com 1.10,2013-02-22 15:33:00,
2013-02-22 10:47:00,78.4,70.0,30.05,SSW,195,1.0,-999.0,75,-99.99,,,0.00,682,weatherlink.com 1.10,2013-02-22 15:47:00,
2013-02-22 11:02:00,79.0,70.0,30.05,SSE,162,1.0,-999.0,73,-99.99,,,0.00,728,weatherlink.com 1.10,2013-02-22 16:02:00,
2013-02-22 11:18:00,80.0,70.0,30.05,SE,144,2.0,-999.0,72,-99.99,,,0.00,814,weatherlink.com 1.10,2013-02-22 16:18:00,
2013-02-22 11:33:00,79.9,70.0,30.05,East,101,4.0,-999.0,72,-99.99,,,0.00,234,weatherlink.com 1.10,2013-02-22 16:33:00,
2013-02-22 11:48:00,79.3,70.0,30.05,South,178,4.0,-999.0,72,-99.99,,,0.00,285,weatherlink.com 1.10,2013-02-22 16:48:00,
2013-02-22 12:03:00,80.4,70.0,30.04,South,169,1.0,-999.0,70,-99.99,,,0.00,953,weatherlink.com 1.10,2013-02-22 17:03:00,
2013-02-22 12:18:00,81.3,70.0,30.04,SSW,198,1.0,-999.0,68,-99.99,,,0.00,846,weatherlink.com 1.10,2013-02-22 17:18:00,
2013-02-22 12:33:00,81.8,69.0,30.04,SE,145,2.0,-999.0,66,-99.99,,,0.00,803,weatherlink.com 1.10,2013-02-22 17:33:00,
2013-02-22 12:48:00,82.2,70.0,30.03,East,100,0.0,-999.0,66,-99.99,,,0.00,717,weatherlink.com 1.10,2013-02-22 17:48:00,
2013-02-22 13:03:00,82.9,70.0,30.02,NNE,24,1.0,-999.0,65,-99.99,,,0.00,807,weatherlink.com 1.10,2013-02-22 18:03:00,
2013-02-22 13:18:00,82.6,70.0,30.02,West,278,3.0,-999.0,65,-99.99,,,0.00,784,weatherlink.com 1.10,2013-02-22 18:18:00,
2013-02-22 13:33:00,83.5,70.0,30.02,SSW,211,3.0,-999.0,63,-99.99,,,0.00,789,weatherlink.com 1.10,2013-02-22 18:33:00,
2013-02-22 13:48:00,82.5,70.0,30.02,SSW,192,4.0,-999.0,65,-99.99,,,0.00,733,weatherlink.com 1.10,2013-02-22 18:48:00,
2013-02-22 14:03:00,81.8,70.0,30.01,ESE,117,0.0,-999.0,67,-99.99,,,0.00,756,weatherlink.com 1.10,2013-02-22 19:03:00,
2013-02-22 14:18:00,82.1,70.0,30.00,SSW,212,3.0,-999.0,67,-99.99,,,0.00,661,weatherlink.com 1.10,2013-02-22 19:18:00,
2013-02-22 14:33:00,82.5,70.0,30.00,SSW,213,0.0,-999.0,66,-99.99,,,0.00,696,weatherlink.com 1.10,2013-02-22 19:33:00,
2013-02-22 14:48:00,82.1,70.0,30.00,SSW,198,2.0,-999.0,66,-99.99,,,0.00,661,weatherlink.com 1.10,2013-02-22 19:48:00,
2013-02-22 15:03:00,81.2,70.0,29.99,SSE,148,2.0,-999.0,68,-99.99,,,0.00,613,weatherlink.com 1.10,2013-02-22 20:03:00,
2013-02-22 15:18:00,80.8,70.0,29.99,SSW,200,1.0,-999.0,70,-99.99,,,0.00,584,weatherlink.com 1.10,2013-02-22 20:18:00,
2013-02-22 15:33:00,80.8,70.0,29.99,SW,221,4.0,-999.0,69,-99.99,,,0.00,473,weatherlink.com 1.10,2013-02-22 20:33:00,
2013-02-22 15:48:00,80.9,70.0,29.98,WSW,252,6.0,-999.0,70,-99.99,,,0.00,459,weatherlink.com 1.10,2013-02-22 20:48:00,
2013-02-22 16:03:00,80.4,70.0,29.99,WSW,254,1.0,-999.0,70,-99.99,,,0.00,272,weatherlink.com 1.10,2013-02-22 21:03:00,
2013-02-22 16:18:00,79.4,70.0,29.99,SSW,205,2.0,-999.0,72,-99.99,,,0.00,146,weatherlink.com 1.10,2013-02-22 21:18:00,
2013-02-22 16:33:00,78.0,70.0,29.99,East,100,1.0,-999.0,75,-99.99,,,0.00,141,weatherlink.com 1.10,2013-02-22 21:33:00,
2013-02-22 16:48:00,77.5,69.0,29.99,WSW,244,0.0,-999.0,75,-99.99,,,0.00,72,weatherlink.com 1.10,2013-02-22 21:48:00,
2013-02-22 17:03:00,77.7,69.0,29.98,WSW,253,3.0,-999.0,75,-99.99,,,0.00,46,weatherlink.com 1.10,2013-02-22 22:03:00,
2013-02-22 17:18:00,76.5,69.0,29.98,SW,222,3.0,-999.0,77,-99.99,,,0.00,40,weatherlink.com 1.10,2013-02-22 22:18:00,
2013-02-22 17:33:00,75.7,69.0,29.99,SSE,154,1.0,-999.0,79,-99.99,,,0.00,56,weatherlink.com 1.10,2013-02-22 22:33:00,
2013-02-22 17:48:00,75.4,69.0,29.99,WSW,237,2.0,-999.0,80,-99.99,,,0.00,56,weatherlink.com 1.10,2013-02-22 22:48:00,
2013-02-22 18:04:00,75.0,68.0,29.99,SSW,204,0.0,-999.0,80,-99.99,,,0.00,32,weatherlink.com 1.10,2013-02-22 23:04:00,
2013-02-22 18:18:00,74.4,68.0,30.00,South,180,0.0,-999.0,81,-99.99,,,0.00,7,weatherlink.com 1.10,2013-02-22 23:18:00,
2013-02-22 18:33:00,73.8,68.0,30.00,SW,218,2.0,-999.0,82,-99.99,,,0.00,0,weatherlink.com 1.10,2013-02-22 23:33:00,
2013-02-22 18:48:00,73.3,68.0,30.00,SSW,206,0.0,-999.0,84,-99.99,,,0.00,0,weatherlink.com 1.10,2013-02-22 23:48:00,
2013-02-22 19:03:00,72.8,68.0,30.00,South,180,0.0,-999.0,84,-99.99,,,0.00,0,weatherlink.com 1.10,2013-02-23 00:03:00,
2013-02-22 19:18:00,72.4,68.0,30.00,WSW,240,0.0,-999.0,85,-99.99,,,0.00,0,weatherlink.com 1.10,2013-02-23 00:18:00,
2013-02-22 19:33:00,72.1,67.0,30.00,SSW,204,1.0,-999.0,85,-99.99,,,0.00,0,weatherlink.com 1.10,2013-02-23 00:33:00,
2013-02-22 19:48:00,71.9,68.0,30.01,South,181,0.0,-999.0,86,-99.99,,,0.00,0,weatherlink.com 1.10,2013-02-23 00:48:00,
2013-02-22 20:03:00,71.5,67.0,30.01,WSW,237,0.0,-999.0,86,-99.99,,,0.00,0,weatherlink.com 1.10,2013-02-23 01:03:00,
2013-02-22 20:18:00,71.2,67.0,30.01,South,181,0.0,-999.0,87,-99.99,,,0.00,0,weatherlink.com 1.10,2013-02-23 01:18:00,
2013-02-22 20:33:00,71.0,67.0,30.01,SSW,209,0.0,-999.0,88,-99.99,,,0.00,0,weatherlink.com 1.10,2013-02-23 01:33:00,
2013-02-22 20:48:00,70.7,67.0,30.01,South,179,0.0,-999.0,89,-99.99,,,0.00,0,weatherlink.com 1.10,2013-02-23 01:48:00,
2013-02-22 21:03:00,70.5,68.0,30.02,SSW,201,0.0,-999.0,90,-99.99,,,0.00,0,weatherlink.com 1.10,2013-02-23 02:03:00,
2013-02-22 21:18:00,70.3,67.0,30.02,WSW,241,0.0,-999.0,90,-99.99,,,0.00,0,weatherlink.com 1.10,2013-02-23 02:18:00,
2013-02-22 21:34:00,70.2,68.0,30.02,SW,217,2.0,-999.0,91,-99.99,,,0.00,0,weatherlink.com 1.10,2013-02-23 02:34:00,
2013-02-22 21:48:00,70.1,67.0,30.02,WSW,240,0.0,-999.0,91,-99.99,,,0.00,0,weatherlink.com 1.10,2013-02-23 02:48:00,
2013-02-22 22:03:00,70.0,68.0,30.02,ESE,109,0.0,-999.0,92,-99.99,,,0.00,0,weatherlink.com 1.10,2013-02-23 03:03:00,
2013-02-22 22:18:00,70.1,68.0,30.02,ESE,121,0.0,-999.0,92,-99.99,,,0.00,0,weatherlink.com 1.10,2013-02-23 03:18:00,
2013-02-22 22:33:00,70.2,68.0,30.02,SE,126,0.0,-999.0,92,-99.99,,,0.00,0,weatherlink.com 1.10,2013-02-23 03:33:00,
2013-02-22 22:49:00,70.3,68.0,30.01,SE,145,0.0,-999.0,92,-99.99,,,0.00,0,weatherlink.com 1.10,2013-02-23 03:49:00,
2013-02-22 23:03:00,70.2,68.0,30.01,SW,232,0.0,-999.0,92,-99.99,,,0.00,0,weatherlink.com 1.10,2013-02-23 04:03:00,
2013-02-22 23:18:00,70.1,68.0,30.01,SE,132,1.0,-999.0,93,-99.99,,,0.00,0,weatherlink.com 1.10,2013-02-23 04:18:00,
2013-02-22 23:33:00,70.0,68.0,30.00,SE,144,0.0,-999.0,93,-99.99,,,0.00,0,weatherlink.com 1.10,2013-02-23 04:33:00,
2013-02-22 23:49:00,69.9,68.0,30.00,SW,231,0.0,-999.0,93,-99.99,,,0.00,0,weatherlink.com 1.10,2013-02-23 04:49:00,